Time;durP1;ratioP1;P1;durP2;ratioP2;P2;SDS_P1;SDS_P2;PMS_P1;PMS_P2;Temp;Humidity;BMP_temperature;BMP_pressure;BME280_temperature;BME280_humidity;BME280_pressure;Samples;Min_cycle;Max_cycle;Signal;HPM_P1;HPM_P2
2023/11/10 00:00:38;;;;;;;1.65;1.48;;;;;;;12.19;90.71;97849.00;5092539;28;20020;-49
2023/11/10 00:03:03;;;;;;;1.35;0.90;;;;;;;12.18;90.47;97858.72;5092423;28;20020;-48
2023/11/10 00:05:33;;;;;;;5.10;4.60;;;;;;;12.20;89.46;97855.88;5091155;28;20073;-49
2023/11/10 00:07:59;;;;;;;3.78;2.85;;;;;;;12.10;89.84;97832.78;5092300;28;20050;-49
2023/11/10 00:10:26;;;;;;;4.00;2.55;;;;;;;12.10;90.30;97842.50;5090999;28;20028;-49
2023/11/10 00:12:53;;;;;;;2.17;1.58;;;;;;;12.09;89.51;97846.97;5092296;28;20042;-49
2023/11/10 00:15:21;;;;;;;6.13;1.10;;;;;;;12.17;89.56;97886.09;5092264;28;20504;-49
2023/11/10 00:17:46;;;;;;;3.50;3.10;;;;;;;12.14;88.84;97833.13;5091009;28;20054;-49
2023/11/10 00:20:14;;;;;;;2.30;1.20;;;;;;;12.15;89.59;97856.59;5091948;28;20513;-48
2023/11/10 00:22:41;;;;;;;2.63;0.75;;;;;;;12.12;90.41;97870.19;5092199;28;20047;-49
2023/11/10 00:25:08;;;;;;;5.35;1.95;;;;;;;11.93;90.76;97868.69;5090849;28;20147;-48
2023/11/10 00:27:34;;;;;;;3.92;2.00;;;;;;;11.72;93.50;97877.94;5092339;28;20052;-49
2023/11/10 00:30:00;;;;;;;1.27;1.00;;;;;;;11.56;96.25;97855.75;5092041;28;20024;-48
2023/11/10 00:32:26;;;;;;;2.28;2.10;;;;;;;11.37;94.82;97847.94;5092068;28;20024;-48
2023/11/10 00:34:52;;;;;;;5.22;4.82;;;;;;;11.24;96.20;97863.91;5090772;28;20077;-48
2023/11/10 00:37:17;;;;;;;3.38;2.00;;;;;;;11.21;97.87;97840.72;5092016;28;20031;-48
2023/11/10 00:39:43;;;;;;;1.98;1.35;;;;;;;11.20;97.69;97844.38;5089819;28;20040;-49
2023/11/10 00:42:09;;;;;;;1.58;0.93;;;;;;;11.11;98.06;97843.09;5091897;28;20020;-49
2023/11/10 00:44:35;;;;;;;2.90;1.58;;;;;;;11.10;98.22;97828.34;5090628;28;20043;-48
2023/11/10 00:47:01;;;;;;;4.45;2.83;;;;;;;11.17;98.75;97803.59;5090452;28;20077;-49
2023/11/10 00:49:27;;;;;;;3.08;1.30;;;;;;;11.20;99.11;97815.47;5091921;28;20042;-49
2023/11/10 00:51:53;;;;;;;0.85;0.82;;;;;;;11.16;97.01;97811.69;5092044;28;20012;-49
2023/11/10 00:54:19;;;;;;;1.33;0.93;;;;;;;11.15;98.70;97818.78;5090771;28;20448;-48
2023/11/10 00:56:45;;;;;;;3.65;1.25;;;;;;;11.31;99.05;97825.22;5090469;28;20063;-49
2023/11/10 00:59:11;;;;;;;0.82;0.80;;;;;;;11.49;95.17;97818.25;5092079;28;20054;-49
2023/11/10 01:01:37;;;;;;;1.92;0.70;;;;;;;11.65;94.47;97816.78;5091771;28;20043;-49
2023/11/10 01:04:04;;;;;;;2.10;0.68;;;;;;;11.74;95.09;97802.28;5090440;28;20059;-49
2023/11/10 01:06:30;;;;;;;1.88;0.85;;;;;;;11.75;94.87;97804.69;5090291;28;20024;-49
2023/11/10 01:08:59;;;;;;;4.63;0.93;;;;;;;11.70;96.16;97799.28;5090363;28;20144;-48
2023/11/10 01:11:25;;;;;;;2.50;1.45;;;;;;;11.67;96.13;97806.81;5090346;28;20020;-49
2023/11/10 01:13:51;;;;;;;2.55;1.73;;;;;;;11.66;95.30;97819.19;5091695;28;20103;-49
2023/11/10 01:16:17;;;;;;;5.30;2.00;;;;;;;11.76;95.61;97803.63;5091690;28;20099;-49
2023/11/10 01:18:43;;;;;;;1.75;1.25;;;;;;;11.89;95.60;97799.19;5090030;28;20044;-49
2023/11/10 01:21:09;;;;;;;5.53;2.80;;;;;;;11.97;95.98;97798.84;5091579;28;20036;-49
2023/11/10 01:23:35;;;;;;;2.65;1.05;;;;;;;11.96;93.31;97800.69;5090548;28;20393;-49
2023/11/10 01:26:01;;;;;;;5.97;5.43;;;;;;;12.00;91.85;97808.91;5091493;28;20024;-48
2023/11/10 01:28:27;;;;;;;1.65;1.33;;;;;;;11.98;91.55;97803.06;5091485;28;20024;-49
2023/11/10 01:30:53;;;;;;;4.15;1.00;;;;;;;11.94;94.38;97797.47;5090269;28;20020;-48
2023/11/10 01:33:19;;;;;;;0.60;0.60;;;;;;;12.04;94.49;97804.00;5091685;28;20028;-49
2023/11/10 01:35:46;;;;;;;8.35;3.05;;;;;;;12.07;91.99;97780.63;5091463;28;20456;-48
2023/11/10 01:38:12;;;;;;;3.45;3.17;;;;;;;12.08;90.76;97805.13;5091418;28;20039;-49
2023/11/10 01:40:39;;;;;;;4.20;2.38;;;;;;;11.96;89.69;97787.53;5091368;28;20104;-49
2023/11/10 01:43:13;;;;;;;3.42;1.50;;;;;;;11.91;90.60;97807.66;5091331;28;20032;-49
2023/11/10 01:45:40;;;;;;;3.22;2.88;;;;;;;11.79;92.40;97795.31;5089987;28;20451;-48
2023/11/10 01:48:07;;;;;;;1.20;1.00;;;;;;;11.71;92.39;97793.03;5091203;28;20073;-49
2023/11/10 01:50:34;;;;;;;1.63;0.60;;;;;;;11.63;92.67;97779.41;5091579;28;20047;-48
2023/11/10 01:53:03;;;;;;;1.83;1.58;;;;;;;11.64;94.21;97821.25;5095057;28;20024;-49
2023/11/10 01:55:30;;;;;;;4.72;1.00;;;;;;;11.55;94.01;97798.94;5095014;28;20025;-49
2023/11/10 01:57:57;;;;;;;15.90;14.52;;;;;;;11.52;93.21;97802.03;5094932;28;20039;-48
2023/11/10 02:00:30;;;;;;;37.58;34.33;;;;;;;11.31;94.91;97809.44;5094828;28;20024;-48
2023/11/10 02:03:01;;;;;;;4.50;4.10;;;;;;;11.15;94.62;97820.63;5094826;28;20494;-48
2023/11/10 02:05:27;;;;;;;5.90;5.32;;;;;;;10.99;97.74;97811.56;5094730;28;20055;-47
2023/11/10 02:07:53;;;;;;;3.25;1.38;;;;;;;10.93;98.01;97794.88;5094583;28;20481;-47
2023/11/10 02:10:20;;;;;;;4.30;1.92;;;;;;;10.84;100.00;97795.41;5094601;28;20558;-47
2023/11/10 02:12:57;;;;;;;2.63;1.08;;;;;;;10.81;100.00;97794.03;5093305;28;20024;-47
2023/11/10 02:15:23;;;;;;;37.45;34.13;;;;;;;10.66;100.00;97794.44;5094520;28;20050;-47
2023/11/10 02:17:50;;;;;;;57.15;51.67;;;;;;;10.64;100.00;97783.34;5094539;28;20028;-47
2023/11/10 02:20:15;;;;;;;58.47;52.95;;;;;;;10.71;100.00;97772.78;5094236;28;20055;-47
2023/11/10 02:22:47;;;;;;;4.10;3.70;;;;;;;10.68;100.00;97750.41;5094505;28;20024;-47
2023/11/10 02:25:21;;;;;;;11.02;9.68;;;;;;;10.62;100.00;97790.66;5094377;28;20105;-46
2023/11/10 02:27:49;;;;;;;13.20;12.10;;;;;;;10.63;100.00;97789.63;5093205;28;20039;-46
2023/11/10 02:30:16;;;;;;;33.88;30.48;;;;;;;10.59;100.00;97785.88;5092933;28;20111;-46
2023/11/10 02:32:43;;;;;;;71.72;65.47;;;;;;;10.54;100.00;97762.09;5094250;28;20020;-46
2023/11/10 02:35:09;;;;;;;3.65;2.90;;;;;;;10.44;100.00;97770.50;5094219;28;20074;-46
2023/11/10 02:37:36;;;;;;;1.45;1.35;;;;;;;10.47;100.00;97779.78;5094130;28;20039;-46
2023/11/10 02:40:05;;;;;;;4.55;1.90;;;;;;;10.43;100.00;97765.50;5092752;28;20024;-46
2023/11/10 02:42:31;;;;;;;2.13;1.20;;;;;;;10.47;100.00;97780.56;5094034;28;20039;-46
2023/11/10 02:44:56;;;;;;;2.65;1.10;;;;;;;10.47;100.00;97780.56;5092706;28;20020;-46
2023/11/10 02:47:22;;;;;;;5.97;3.70;;;;;;;10.49;100.00;97783.75;5093823;28;20497;-46
2023/11/10 02:49:48;;;;;;;5.53;3.42;;;;;;;10.51;100.00;97807.94;5094103;28;20020;-46
2023/11/10 02:52:13;;;;;;;4.38;1.10;;;;;;;10.48;100.00;97782.16;5093888;28;20485;-46
2023/11/10 02:54:39;;;;;;;4.47;3.45;;;;;;;10.49;100.00;97775.09;5093797;28;20024;-47
2023/11/10 02:57:05;;;;;;;4.57;3.35;;;;;;;10.46;100.00;97804.38;5093719;28;20107;-46
2023/11/10 02:59:30;;;;;;;3.63;1.58;;;;;;;10.39;100.00;97800.03;5075678;28;20032;-46
2023/11/10 03:01:56;;;;;;;3.58;1.08;;;;;;;10.35;100.00;97790.19;5091920;28;20020;-46
2023/11/10 03:04:22;;;;;;;13.00;11.20;;;;;;;10.35;100.00;97779.72;5093143;28;20024;-46
2023/11/10 03:06:48;;;;;;;51.38;46.70;;;;;;;10.35;100.00;97788.38;5093442;28;20024;-46
2023/11/10 03:09:15;;;;;;;17.80;16.20;;;;;;;10.32;100.00;97753.91;5092349;28;20031;-46
2023/11/10 03:11:41;;;;;;;8.85;7.38;;;;;;;10.25;100.00;97753.97;5093480;28;20028;-46
2023/11/10 03:14:06;;;;;;;3.30;1.80;;;;;;;10.18;100.00;97743.56;5093447;28;20020;-46
2023/11/10 03:16:32;;;;;;;4.82;4.03;;;;;;;10.18;100.00;97748.81;5093402;28;20028;-46
2023/11/10 03:18:58;;;;;;;102.13;93.05;;;;;;;10.20;100.00;97753.81;5093086;28;20105;-46
2023/11/10 03:21:24;;;;;;;5.72;4.18;;;;;;;10.29;100.00;97772.69;5091961;28;20031;-46
2023/11/10 03:23:50;;;;;;;3.55;1.73;;;;;;;10.21;100.00;97773.78;5093482;28;20039;-46
2023/11/10 03:26:16;;;;;;;6.50;3.83;;;;;;;10.13;100.00;97777.50;5093020;28;20099;-46
2023/11/10 03:28:43;;;;;;;4.20;3.13;;;;;;;10.11;100.00;97789.25;5091882;28;20397;-46
2023/11/10 03:31:09;;;;;;;1.27;0.90;;;;;;;10.11;100.00;97779.56;5093027;28;20020;-47
2023/11/10 03:33:35;;;;;;;2.75;1.02;;;;;;;10.16;100.00;97781.50;5091710;28;20035;-47
2023/11/10 03:36:05;;;;;;;3.30;1.45;;;;;;;10.25;100.00;97782.03;5091651;28;20524;-47
2023/11/10 03:38:31;;;;;;;4.18;2.47;;;;;;;10.34;100.00;97784.16;5091707;28;20035;-48
2023/11/10 03:40:58;;;;;;;0.88;0.73;;;;;;;10.40;100.00;97790.31;5091616;28;20024;-48
2023/11/10 03:43:25;;;;;;;6.38;1.55;;;;;;;10.56;100.00;97781.88;5093121;28;20381;-48
2023/11/10 03:45:51;;;;;;;5.60;5.05;;;;;;;10.71;100.00;97789.31;5058112;28;20020;-49
2023/11/10 03:48:17;;;;;;;7.82;7.03;;;;;;;10.78;100.00;97789.22;5091422;28;20047;-48
2023/11/10 03:50:43;;;;;;;4.15;1.42;;;;;;;10.99;100.00;97793.19;5091403;28;20068;-48
2023/11/10 03:53:09;;;;;;;5.10;4.47;;;;;;;11.05;100.00;97794.91;5074553;28;20501;-48
2023/11/10 03:55:34;;;;;;;4.28;2.92;;;;;;;11.00;100.00;97795.56;5091315;28;20020;-48
2023/11/10 03:58:00;;;;;;;17.00;15.73;;;;;;;11.05;100.00;97789.66;5092600;28;20063;-48
2023/11/10 04:00:26;;;;;;;2.92;1.50;;;;;;;10.95;100.00;97795.44;5091265;28;20440;-48
2023/11/10 04:02:52;;;;;;;4.63;1.63;;;;;;;10.87;100.00;97784.47;5091227;28;20028;-48
2023/11/10 04:05:18;;;;;;;3.42;1.85;;;;;;;10.84;100.00;97788.31;5074247;28;20032;-47
2023/11/10 04:07:44;;;;;;;4.40;1.52;;;;;;;10.70;100.00;97756.22;5091035;28;20053;-47
2023/11/10 04:10:12;;;;;;;8.40;7.53;;;;;;;10.61;100.00;97790.91;5091047;28;20026;-47
2023/11/10 04:12:38;;;;;;;3.40;1.20;;;;;;;10.49;100.00;97793.47;5092445;28;20389;-47
2023/11/10 04:15:05;;;;;;;4.25;1.95;;;;;;;10.55;100.00;97792.56;5090846;28;20030;-48
2023/11/10 04:17:31;;;;;;;1.85;1.20;;;;;;;10.58;100.00;97808.69;5092361;28;20031;-48
2023/11/10 04:19:57;;;;;;;6.32;1.85;;;;;;;10.54;100.00;97791.78;5090586;28;20551;-48
2023/11/10 04:22:23;;;;;;;2.35;1.38;;;;;;;10.55;100.00;97808.31;5092243;28;20070;-48
2023/11/10 04:24:49;;;;;;;3.80;1.60;;;;;;;10.64;100.00;97801.72;5090928;28;20021;-48
2023/11/10 04:27:14;;;;;;;8.18;7.15;;;;;;;10.73;100.00;97783.84;5092078;28;20028;-48
2023/11/10 04:29:40;;;;;;;2.85;2.55;;;;;;;10.71;100.00;97796.41;5092150;28;20024;-48
2023/11/10 04:32:07;;;;;;;2.33;1.83;;;;;;;10.76;100.00;97794.69;5090832;28;20482;-48
2023/11/10 04:34:32;;;;;;;5.53;1.77;;;;;;;10.77;100.00;97791.06;5092135;28;20023;-47
2023/11/10 04:36:58;;;;;;;74.47;68.93;;;;;;;10.73;100.00;97805.66;5092083;28;20028;-47
2023/11/10 04:39:24;;;;;;;24.27;22.02;;;;;;;10.67;100.00;97811.00;5090761;28;20020;-47
2023/11/10 04:41:50;;;;;;;3.13;2.13;;;;;;;10.63;100.00;97810.63;5091918;28;20028;-47
2023/11/10 04:44:16;;;;;;;6.50;2.15;;;;;;;10.61;100.00;97810.06;5073868;28;20389;-47
2023/11/10 04:46:42;;;;;;;4.75;2.38;;;;;;;10.55;100.00;97814.34;5090551;28;20027;-46
2023/11/10 04:49:10;;;;;;;25.23;23.08;;;;;;;10.62;100.00;97816.88;5091818;28;20028;-46
2023/11/10 04:51:36;;;;;;;4.75;3.30;;;;;;;10.54;100.00;97810.16;5091825;28;20140;-47
2023/11/10 04:54:03;;;;;;;3.80;1.52;;;;;;;10.59;100.00;97815.50;5091762;28;20111;-46
2023/11/10 04:56:29;;;;;;;49.35;45.20;;;;;;;10.55;100.00;97793.38;5090506;28;20038;-46
2023/11/10 04:58:54;;;;;;;28.65;26.17;;;;;;;10.56;100.00;97805.47;5091755;28;20017;-46
2023/11/10 05:01:20;;;;;;;4.53;3.35;;;;;;;10.68;100.00;97802.88;5091748;28;20027;-47
2023/11/10 05:03:46;;;;;;;3.67;2.00;;;;;;;10.69;100.00;97794.00;5090456;28;20027;-47
2023/11/10 05:06:11;;;;;;;5.75;4.43;;;;;;;10.66;100.00;97788.38;5090390;28;20058;-47
2023/11/10 05:08:37;;;;;;;5.13;4.63;;;;;;;10.75;100.00;97781.81;5090295;28;20081;-47
2023/11/10 05:11:04;;;;;;;4.65;4.00;;;;;;;10.66;100.00;97768.19;5090492;28;20024;-47
2023/11/10 05:13:30;;;;;;;7.13;6.03;;;;;;;10.68;100.00;97779.25;5091683;28;20494;-47
2023/11/10 05:15:56;;;;;;;5.65;3.03;;;;;;;10.80;100.00;97787.19;5073492;28;20028;-47
2023/11/10 05:18:27;;;;;;;17.90;16.40;;;;;;;10.84;100.00;97796.19;5091658;28;20115;-47
2023/11/10 05:20:54;;;;;;;27.58;25.30;;;;;;;10.79;100.00;97803.97;5091433;28;20513;-47
2023/11/10 05:23:21;;;;;;;32.17;29.42;;;;;;;10.83;100.00;97807.75;5090278;28;20555;-48
2023/11/10 05:25:46;;;;;;;8.63;7.78;;;;;;;10.94;100.00;97814.03;5090947;28;20461;-48
2023/11/10 05:28:12;;;;;;;5.90;3.50;;;;;;;10.98;100.00;97812.56;5094386;28;20024;-48
2023/11/10 05:30:38;;;;;;;6.65;2.85;;;;;;;11.38;100.00;97828.53;5095505;28;20066;-48
2023/11/10 05:33:03;;;;;;;3.35;2.28;;;;;;;11.46;100.00;97831.84;5094082;28;20063;-48
2023/11/10 05:35:29;;;;;;;2.75;1.52;;;;;;;11.31;100.00;97835.72;5094073;28;20020;-48
2023/11/10 05:37:55;;;;;;;5.47;1.95;;;;;;;11.23;100.00;97822.91;5094020;28;20119;-49
2023/11/10 05:40:23;;;;;;;5.85;2.83;;;;;;;11.14;100.00;97829.50;5093975;28;20024;-48
2023/11/10 05:42:48;;;;;;;28.35;25.98;;;;;;;11.25;100.00;97820.03;5095464;28;20052;-48
2023/11/10 05:45:14;;;;;;;6.32;4.90;;;;;;;11.30;100.00;97812.28;5093840;28;20031;-48
2023/11/10 05:47:40;;;;;;;16.88;15.48;;;;;;;11.35;100.00;97823.72;5093694;28;20054;-48
2023/11/10 05:50:06;;;;;;;5.22;2.38;;;;;;;11.43;100.00;97813.91;5093737;28;20180;-48
2023/11/10 05:52:32;;;;;;;5.72;5.15;;;;;;;11.33;100.00;97804.78;5094001;28;20042;-48
2023/11/10 05:54:58;;;;;;;6.05;3.20;;;;;;;11.25;100.00;97815.59;5093716;28;20020;-48
2023/11/10 05:57:25;;;;;;;9.27;6.47;;;;;;;11.22;100.00;97813.41;5093660;28;20111;-48
2023/11/10 05:59:51;;;;;;;31.70;29.25;;;;;;;11.23;100.00;97807.16;5093594;28;20016;-48
2023/11/10 06:02:17;;;;;;;5.45;4.90;;;;;;;11.25;100.00;97822.66;5093532;28;20024;-48
2023/11/10 06:04:44;;;;;;;8.75;8.05;;;;;;;11.28;100.00;97823.03;5093475;28;20031;-49
2023/11/10 06:07:11;;;;;;;38.05;35.08;;;;;;;11.30;100.00;97823.59;5094636;28;20027;-48
2023/11/10 06:09:37;;;;;;;8.38;5.95;;;;;;;11.22;100.00;97815.25;5094733;28;20024;-48
2023/11/10 06:12:08;;;;;;;7.00;5.82;;;;;;;11.14;100.00;97829.50;5094604;28;20065;-48
2023/11/10 06:14:34;;;;;;;7.82;7.03;;;;;;;11.16;100.00;97819.56;5093567;28;20066;-49
2023/11/10 06:17:00;;;;;;;16.95;15.25;;;;;;;11.23;100.00;97824.72;5093257;28;20020;-48
2023/11/10 06:19:25;;;;;;;10.05;9.00;;;;;;;11.33;100.00;97833.66;5093003;28;20051;-48
2023/11/10 06:21:52;;;;;;;8.35;5.80;;;;;;;11.34;100.00;97845.75;5094436;28;20103;-48
2023/11/10 06:24:20;;;;;;;11.85;10.32;;;;;;;11.24;100.00;97844.72;5093083;28;20077;-48
2023/11/10 06:26:46;;;;;;;17.20;15.85;;;;;;;11.12;100.00;97840.22;5094215;28;20023;-48
2023/11/10 06:29:12;;;;;;;9.27;6.20;;;;;;;11.15;100.00;97852.13;5094367;28;20024;-48
2023/11/10 06:31:38;;;;;;;10.48;9.10;;;;;;;11.25;100.00;97841.88;5094212;28;20073;-48
2023/11/10 06:34:04;;;;;;;2.60;2.17;;;;;;;11.31;100.00;97848.84;5092934;28;20031;-48
2023/11/10 06:36:31;;;;;;;10.15;9.23;;;;;;;11.25;100.00;97846.31;5093974;28;20080;-48
2023/11/10 06:38:58;;;;;;;4.30;2.65;;;;;;;11.28;100.00;97849.28;5093009;28;20020;-48
2023/11/10 06:41:24;;;;;;;4.25;2.17;;;;;;;11.22;100.00;97842.31;5094125;28;20013;-48
2023/11/10 06:43:50;;;;;;;4.05;2.25;;;;;;;11.11;100.00;97840.47;5094141;28;20623;-48
2023/11/10 06:46:22;;;;;;;4.10;2.85;;;;;;;11.10;100.00;97836.22;5094044;28;20024;-48
2023/11/10 06:48:51;;;;;;;6.80;4.70;;;;;;;11.24;100.00;97845.50;5093919;28;20045;-48
2023/11/10 06:51:18;;;;;;;6.72;3.97;;;;;;;11.22;100.00;97842.31;5093857;28;20017;-48
2023/11/10 06:53:45;;;;;;;3.70;3.25;;;;;;;11.22;100.00;97844.94;5059196;28;20035;-48
2023/11/10 06:56:10;;;;;;;6.60;4.45;;;;;;;11.31;100.00;97848.06;5093788;28;20052;-48
2023/11/10 06:58:36;;;;;;;7.40;5.15;;;;;;;11.38;100.00;97844.28;5093830;28;20063;-48
2023/11/10 07:01:04;;;;;;;6.72;2.80;;;;;;;11.42;100.00;97831.50;5092404;28;20020;-48
2023/11/10 07:03:30;;;;;;;3.70;3.35;;;;;;;11.40;100.00;97842.22;5093698;28;20099;-48
2023/11/10 07:05:56;;;;;;;4.15;2.42;;;;;;;11.44;100.00;97839.97;5093586;28;20062;-48
2023/11/10 07:08:22;;;;;;;6.15;5.43;;;;;;;11.50;100.00;97841.66;5092177;28;20545;-48
2023/11/10 07:10:53;;;;;;;5.65;2.88;;;;;;;11.48;100.00;97850.81;5092206;28;20023;-48
2023/11/10 07:13:19;;;;;;;14.02;8.82;;;;;;;11.52;100.00;97849.34;5093559;28;20474;-48
2023/11/10 07:15:45;;;;;;;8.18;2.28;;;;;;;11.55;100.00;97836.56;5092054;28;20035;-48
2023/11/10 07:18:11;;;;;;;4.72;2.70;;;;;;;11.53;100.00;97848.28;5093433;28;20020;-48
2023/11/10 07:20:43;;;;;;;6.80;2.75;;;;;;;11.48;100.00;97856.06;5092333;28;20505;-48
2023/11/10 07:23:09;;;;;;;6.95;2.63;;;;;;;11.53;100.00;97858.81;5092338;28;20084;-48
2023/11/10 07:25:34;;;;;;;7.10;2.53;;;;;;;11.68;100.00;97853.91;5091029;28;20032;-48
2023/11/10 07:28:00;;;;;;;6.22;2.83;;;;;;;11.87;100.00;97851.19;5090889;28;20077;-48
2023/11/10 07:30:28;;;;;;;9.00;4.82;;;;;;;11.91;100.00;97852.34;5090968;28;20024;-48
2023/11/10 07:32:54;;;;;;;5.78;3.25;;;;;;;12.40;100.00;97860.75;5092086;28;20076;-48
2023/11/10 07:35:21;;;;;;;6.30;1.63;;;;;;;12.63;100.00;97865.16;5092092;28;20024;-48
2023/11/10 07:37:48;;;;;;;10.13;6.97;;;;;;;12.62;100.00;97860.16;5092108;28;20031;-48
2023/11/10 07:40:15;;;;;;;6.75;2.58;;;;;;;12.80;100.00;97862.59;5090788;28;20521;-48
2023/11/10 07:42:45;;;;;;;9.55;2.83;;;;;;;12.83;100.00;97859.47;5092071;28;20035;-48
2023/11/10 07:45:15;;;;;;;82.63;73.65;;;;;;;12.87;100.00;97867.72;5092037;28;20500;-48
2023/11/10 07:47:49;;;;;;;10.68;6.53;;;;;;;12.85;100.00;97864.53;5090607;28;20024;-48
2023/11/10 07:50:16;;;;;;;5.32;3.83;;;;;;;12.88;100.00;97866.69;5090116;28;20051;-48
2023/11/10 07:52:42;;;;;;;8.07;4.28;;;;;;;13.01;100.00;97868.25;5090638;28;20024;-48
2023/11/10 07:55:09;;;;;;;8.23;6.28;;;;;;;13.21;100.00;97867.78;5090602;28;20059;-48
2023/11/10 07:57:35;;;;;;;23.13;20.92;;;;;;;13.64;100.00;97875.09;5090539;28;20026;-46
2023/11/10 08:00:03;;;;;;;109.85;101.63;;;;;;;14.39;100.00;97879.09;5090447;28;20374;-47
2023/11/10 08:02:29;;;;;;;176.25;162.90;;;;;;;14.10;100.00;97891.63;5091786;28;20036;-47
2023/11/10 08:04:55;;;;;;;8.73;6.72;;;;;;;13.72;100.00;97900.28;5091741;28;20028;-47
2023/11/10 08:07:22;;;;;;;11.73;4.30;;;;;;;13.23;100.00;97903.41;5090301;28;20028;-48
2023/11/10 08:09:49;;;;;;;7.88;3.00;;;;;;;12.89;100.00;97907.78;5090308;28;20371;-47
2023/11/10 08:12:15;;;;;;;8.20;5.78;;;;;;;12.61;100.00;97908.53;5091862;28;20024;-47
2023/11/10 08:14:40;;;;;;;6.97;5.22;;;;;;;12.39;100.00;97914.41;5091563;28;20021;-47
2023/11/10 08:17:07;;;;;;;10.48;6.97;;;;;;;12.21;100.00;97911.91;5090198;28;20115;-47
2023/11/10 08:19:33;;;;;;;39.60;28.73;;;;;;;12.30;100.00;97910.56;5041720;28;1415771;-47
2023/11/10 08:22:00;;;;;;;11.95;5.43;;;;;;;12.63;100.00;97914.38;5090878;28;20020;-47
2023/11/10 08:24:27;;;;;;;7.35;2.88;;;;;;;12.84;100.00;97924.28;5092210;28;20031;-46
2023/11/10 08:26:53;;;;;;;14.45;4.68;;;;;;;12.97;100.00;97910.03;5090871;28;20032;-46
2023/11/10 08:29:19;;;;;;;7.00;3.72;;;;;;;13.05;100.00;97922.84;5074159;28;20028;-47
2023/11/10 08:31:47;;;;;;;8.13;4.32;;;;;;;12.92;100.00;97913.38;5092062;28;20016;-48
2023/11/10 08:34:13;;;;;;;13.02;3.75;;;;;;;12.87;100.00;97915.13;5092324;28;20020;-47
2023/11/10 08:36:39;;;;;;;8.32;4.45;;;;;;;12.66;100.00;97916.56;5090772;28;20537;-47
2023/11/10 08:39:09;;;;;;;8.52;3.60;;;;;;;12.61;100.00;97930.41;5092086;28;20031;-47
2023/11/10 08:41:35;;;;;;;12.48;4.70;;;;;;;12.89;100.00;97928.84;5090685;28;20394;-46
2023/11/10 08:44:03;;;;;;;10.32;7.18;;;;;;;12.86;100.00;97931.94;5090612;28;20024;-46
2023/11/10 08:46:30;;;;;;;158.73;145.43;;;;;;;12.71;100.00;97929.81;5091769;28;20027;-46
2023/11/10 08:48:55;;;;;;;14.35;7.05;;;;;;;12.58;100.00;97929.03;5073875;28;20032;-46
2023/11/10 08:51:21;;;;;;;382.65;349.40;;;;;;;12.72;100.00;97939.31;5090558;28;20517;-46
2023/11/10 08:53:47;;;;;;;13.07;6.20;;;;;;;13.06;100.00;97939.44;5090498;28;20070;-46
2023/11/10 08:56:13;;;;;;;5.63;2.10;;;;;;;13.04;100.00;97931.78;5090554;28;20024;-46
2023/11/10 08:58:39;;;;;;;14.75;13.35;;;;;;;12.56;100.00;97952.16;5091726;28;20528;-46
2023/11/10 09:01:06;;;;;;;48.70;44.45;;;;;;;12.17;100.00;97958.91;5093292;28;20020;-46
2023/11/10 09:03:31;;;;;;;26.92;23.23;;;;;;;12.08;100.00;97955.84;5096053;28;20035;-47
2023/11/10 09:05:58;;;;;;;5.90;2.88;;;;;;;12.21;100.00;97954.00;5095925;28;20024;-47
2023/11/10 09:08:24;;;;;;;69.72;61.15;;;;;;;12.44;100.00;97951.38;5094494;28;20024;-47
2023/11/10 09:10:50;;;;;;;7.10;6.32;;;;;;;12.64;100.00;97960.75;5095834;28;20035;-47
2023/11/10 09:13:16;;;;;;;8.20;5.78;;;;;;;12.62;100.00;97966.22;5094546;28;20024;-47
2023/11/10 09:15:41;;;;;;;172.18;155.88;;;;;;;12.87;100.00;97971.22;5094525;28;20027;-47
2023/11/10 09:18:07;;;;;;;180.02;163.95;;;;;;;13.61;100.00;97972.38;5095758;28;20028;-48
2023/11/10 09:20:33;;;;;;;115.78;105.75;;;;;;;13.99;100.00;97964.56;5094108;28;20540;-48
2023/11/10 09:23:00;;;;;;;20.23;18.42;;;;;;;14.17;100.00;97963.50;5095551;28;20073;-47
2023/11/10 09:25:27;;;;;;;10.43;9.43;;;;;;;15.26;100.00;97966.50;5095621;28;20483;-48
2023/11/10 09:27:56;;;;;;;2.45;1.75;;;;;;;15.87;100.00;97957.56;5095503;28;20051;-48
2023/11/10 09:30:26;;;;;;;4.35;1.33;;;;;;;15.41;100.00;97973.00;5095834;28;20111;-48
2023/11/10 09:32:53;;;;;;;5.10;1.50;;;;;;;14.92;100.00;97984.34;5095833;28;20119;-48
2023/11/10 09:35:19;;;;;;;6.63;4.10;;;;;;;14.69;100.00;97982.72;5095447;28;20020;-48
2023/11/10 09:37:47;;;;;;;17.98;16.17;;;;;;;14.54;100.00;97976.16;5095452;28;20073;-48
2023/11/10 09:40:16;;;;;;;2.78;2.50;;;;;;;14.94;100.00;97966.41;5095296;28;20088;-48
2023/11/10 09:42:42;;;;;;;4.95;1.38;;;;;;;16.49;100.00;97966.75;5095244;28;20797;-48
2023/11/10 09:45:08;;;;;;;5.07;1.30;;;;;;;17.60;100.00;97959.47;5095213;28;20059;-45
2023/11/10 09:47:35;;;;;;;8.05;6.65;;;;;;;19.26;100.00;97962.38;5093916;28;20393;-46
2023/11/10 09:50:02;;;;;;;7.50;3.40;;;;;;;20.82;100.00;97960.81;5095048;28;20035;-45
2023/11/10 09:52:34;;;;;;;3.90;1.95;;;;;;;21.22;98.26;97956.84;5095125;28;20065;-46
2023/11/10 09:55:01;;;;;;;3.00;1.70;;;;;;;21.46;99.45;97967.47;5094973;28;20024;-46
2023/11/10 09:57:28;;;;;;;10.95;2.47;;;;;;;21.86;100.00;97969.84;5094992;28;20019;-46
2023/11/10 09:59:56;;;;;;;3.33;1.20;;;;;;;22.60;100.00;97951.19;5094914;28;20080;-46
2023/11/10 10:02:22;;;;;;;2.25;0.60;;;;;;;22.14;95.22;97944.75;5094938;28;20047;-46
2023/11/10 10:04:49;;;;;;;6.80;1.45;;;;;;;20.80;94.43;97954.97;5093549;28;20056;-46
2023/11/10 10:07:16;;;;;;;3.03;1.02;;;;;;;19.74;95.00;97946.66;5094695;28;20031;-46
2023/11/10 10:09:44;;;;;;;6.13;2.60;;;;;;;20.33;100.00;97939.44;5094737;28;20028;-46
2023/11/10 10:12:11;;;;;;;3.58;1.65;;;;;;;21.71;100.00;97936.13;5094412;28;20020;-46
2023/11/10 10:14:52;;;;;;;5.93;4.45;;;;;;;22.92;100.00;97931.56;5094485;28;20389;-46
2023/11/10 10:17:17;;;;;;;4.55;1.10;;;;;;;23.52;96.54;97935.88;5094637;28;20028;-46
2023/11/10 10:19:43;;;;;;;5.18;0.82;;;;;;;24.06;95.72;97932.47;5093114;28;20046;-46
2023/11/10 10:22:09;;;;;;;0.68;0.60;;;;;;;24.35;88.58;97920.44;5094518;28;20069;-47
2023/11/10 10:24:36;;;;;;;2.40;0.65;;;;;;;24.46;86.10;97927.91;5093122;28;20023;-46
2023/11/10 10:27:02;;;;;;;4.53;0.80;;;;;;;24.58;85.51;97926.56;5093027;28;20402;-47
2023/11/10 10:29:30;;;;;;;1.30;0.70;;;;;;;24.53;82.44;97924.84;5094309;28;20017;-47
2023/11/10 10:31:56;;;;;;;5.05;1.05;;;;;;;24.18;82.45;97927.31;5076215;28;20024;-46
2023/11/10 10:34:21;;;;;;;5.45;0.88;;;;;;;23.84;85.69;97930.59;5092975;28;20050;-46
2023/11/10 10:36:48;;;;;;;3.45;0.85;;;;;;;23.62;92.45;97932.16;5093022;28;20122;-46
2023/11/10 10:39:17;;;;;;;0.80;0.60;;;;;;;23.46;99.53;97928.25;5094165;28;20020;-46
2023/11/10 10:41:44;;;;;;;1.98;0.65;;;;;;;23.35;100.00;97916.22;5094106;28;20024;-46
2023/11/10 10:44:10;;;;;;;2.55;0.68;;;;;;;23.40;100.00;97918.75;5093148;28;20040;-46
2023/11/10 10:46:37;;;;;;;1.80;1.02;;;;;;;23.65;98.20;97918.16;5093876;28;20056;-47
2023/11/10 10:49:04;;;;;;;2.53;1.30;;;;;;;23.67;99.26;97924.00;5094016;28;20026;-46
2023/11/10 10:51:36;;;;;;;3.42;0.88;;;;;;;23.92;100.00;97911.91;5092672;28;20052;-46
2023/11/10 10:54:05;;;;;;;2.22;0.60;;;;;;;23.93;100.00;97913.47;5093975;28;20028;-46
2023/11/10 10:56:31;;;;;;;1.80;1.00;;;;;;;23.45;97.38;97910.63;5093865;28;20016;-47
2023/11/10 10:59:00;;;;;;;4.03;0.60;;;;;;;22.96;96.92;97910.34;5092499;28;20028;-46
2023/11/10 11:01:27;;;;;;;1.23;0.60;;;;;;;21.92;96.87;97909.88;5094057;28;20105;-46
2023/11/10 11:04:22;;;;;;;1.50;0.70;;;;;;;20.85;94.08;97913.03;5093715;28;20024;-46
2023/11/10 11:07:11;;;;;;;2.22;0.68;;;;;;;20.02;91.28;97915.00;5093628;28;20081;-46
2023/11/10 11:10:18;;;;;;;3.33;1.20;;;;;;;19.28;89.12;97916.88;5093593;28;20117;-46
2023/11/10 11:13:03;;;;;;;3.65;0.90;;;;;;;19.22;94.66;97921.41;5093616;28;20028;-46
2023/11/10 11:15:53;;;;;;;1.45;0.55;;;;;;;19.38;94.85;97913.31;5093499;28;20557;-46
2023/11/10 11:18:40;;;;;;;5.60;2.25;;;;;;;19.36;90.85;97905.66;5092163;28;20047;-46
2023/11/10 11:21:06;;;;;;;2.95;0.98;;;;;;;19.35;94.86;97904.03;5093657;28;20124;-46
2023/11/10 11:23:33;;;;;;;3.97;0.70;;;;;;;19.10;92.29;97905.00;5092555;28;20020;-46